sensor_id;sensor_type;location;lat;lon;timestamp;temperature;humidity
38788;DHT22;24536;45.488;12.238;2024-01-16T00:00:13;5.80;93.30
38788;DHT22;24536;45.488;12.238;2024-01-16T00:02:41;5.80;93.30
38788;DHT22;24536;45.488;12.238;2024-01-16T00:05:10;5.80;93.20
38788;DHT22;24536;45.488;12.238;2024-01-16T00:07:39;5.80;93.20
38788;DHT22;24536;45.488;12.238;2024-01-16T00:10:07;5.80;93.20
38788;DHT22;24536;45.488;12.238;2024-01-16T00:12:33;5.70;93.20
38788;DHT22;24536;45.488;12.238;2024-01-16T00:14:59;5.70;93.30
38788;DHT22;24536;45.488;12.238;2024-01-16T00:17:24;5.70;93.30
38788;DHT22;24536;45.488;12.238;2024-01-16T00:19:50;5.70;93.30
38788;DHT22;24536;45.488;12.238;2024-01-16T00:22:15;5.80;93.30
38788;DHT22;24536;45.488;12.238;2024-01-16T00:24:41;5.80;93.20
38788;DHT22;24536;45.488;12.238;2024-01-16T00:27:07;5.80;93.20
38788;DHT22;24536;45.488;12.238;2024-01-16T00:29:32;5.80;93.20
38788;DHT22;24536;45.488;12.238;2024-01-16T00:31:58;5.80;93.20
38788;DHT22;24536;45.488;12.238;2024-01-16T00:34:24;5.80;93.10
38788;DHT22;24536;45.488;12.238;2024-01-16T00:36:50;5.80;93.00
38788;DHT22;24536;45.488;12.238;2024-01-16T00:39:15;5.80;93.10
38788;DHT22;24536;45.488;12.238;2024-01-16T00:41:41;5.70;93.10
38788;DHT22;24536;45.488;12.238;2024-01-16T00:44:06;5.80;93.10
38788;DHT22;24536;45.488;12.238;2024-01-16T00:46:33;5.70;93.10
38788;DHT22;24536;45.488;12.238;2024-01-16T00:48:59;5.80;93.10
38788;DHT22;24536;45.488;12.238;2024-01-16T00:51:24;5.80;93.10
38788;DHT22;24536;45.488;12.238;2024-01-16T00:53:51;5.80;93.10
38788;DHT22;24536;45.488;12.238;2024-01-16T00:56:16;5.80;93.00
38788;DHT22;24536;45.488;12.238;2024-01-16T00:58:42;5.80;92.90
38788;DHT22;24536;45.488;12.238;2024-01-16T01:01:08;5.80;92.80
38788;DHT22;24536;45.488;12.238;2024-01-16T01:03:33;5.80;92.70
38788;DHT22;24536;45.488;12.238;2024-01-16T01:06:00;5.80;92.70
38788;DHT22;24536;45.488;12.238;2024-01-16T01:08:26;5.80;92.80
38788;DHT22;24536;45.488;12.238;2024-01-16T01:10:52;5.80;92.80
38788;DHT22;24536;45.488;12.238;2024-01-16T01:13:17;5.80;92.70
38788;DHT22;24536;45.488;12.238;2024-01-16T01:15:43;5.80;92.60
38788;DHT22;24536;45.488;12.238;2024-01-16T01:18:09;5.80;92.50
38788;DHT22;24536;45.488;12.238;2024-01-16T01:20:34;5.80;92.50
38788;DHT22;24536;45.488;12.238;2024-01-16T01:23:00;5.80;92.40
38788;DHT22;24536;45.488;12.238;2024-01-16T01:25:26;5.60;92.50
38788;DHT22;24536;45.488;12.238;2024-01-16T01:27:52;5.40;92.70
38788;DHT22;24536;45.488;12.238;2024-01-16T01:30:17;5.40;93.00
38788;DHT22;24536;45.488;12.238;2024-01-16T01:32:43;5.30;92.90
38788;DHT22;24536;45.488;12.238;2024-01-16T01:35:09;5.30;92.90
38788;DHT22;24536;45.488;12.238;2024-01-16T01:37:37;5.20;93.00
38788;DHT22;24536;45.488;12.238;2024-01-16T01:40:03;5.20;93.10
38788;DHT22;24536;45.488;12.238;2024-01-16T01:42:28;5.20;93.10
38788;DHT22;24536;45.488;12.238;2024-01-16T01:44:55;5.20;93.10
38788;DHT22;24536;45.488;12.238;2024-01-16T01:47:21;5.30;93.20
38788;DHT22;24536;45.488;12.238;2024-01-16T01:49:47;5.20;93.20
38788;DHT22;24536;45.488;12.238;2024-01-16T01:52:13;5.10;93.30
38788;DHT22;24536;45.488;12.238;2024-01-16T01:54:40;5.20;93.30
38788;DHT22;24536;45.488;12.238;2024-01-16T01:57:08;5.20;93.30
38788;DHT22;24536;45.488;12.238;2024-01-16T01:59:34;5.30;93.30
38788;DHT22;24536;45.488;12.238;2024-01-16T02:02:00;5.30;93.20
38788;DHT22;24536;45.488;12.238;2024-01-16T02:04:26;5.30;93.20
38788;DHT22;24536;45.488;12.238;2024-01-16T02:06:53;5.40;93.20
38788;DHT22;24536;45.488;12.238;2024-01-16T02:09:19;5.40;93.10
38788;DHT22;24536;45.488;12.238;2024-01-16T02:11:45;5.50;93.10
38788;DHT22;24536;45.488;12.238;2024-01-16T02:14:11;5.50;93.00
38788;DHT22;24536;45.488;12.238;2024-01-16T02:16:39;5.50;93.00
38788;DHT22;24536;45.488;12.238;2024-01-16T02:19:05;5.50;93.10
38788;DHT22;24536;45.488;12.238;2024-01-16T02:21:52;5.50;92.70
38788;DHT22;24536;45.488;12.238;2024-01-16T02:24:20;5.40;92.70
38788;DHT22;24536;45.488;12.238;2024-01-16T02:26:46;5.40;92.70
38788;DHT22;24536;45.488;12.238;2024-01-16T02:29:11;5.30;92.80
38788;DHT22;24536;45.488;12.238;2024-01-16T02:31:37;5.20;92.90
38788;DHT22;24536;45.488;12.238;2024-01-16T02:34:03;5.20;92.90
38788;DHT22;24536;45.488;12.238;2024-01-16T02:36:32;5.20;92.90
38788;DHT22;24536;45.488;12.238;2024-01-16T02:38:58;5.20;92.80
38788;DHT22;24536;45.488;12.238;2024-01-16T02:41:24;5.20;92.90
38788;DHT22;24536;45.488;12.238;2024-01-16T02:43:50;5.10;92.90
38788;DHT22;24536;45.488;12.238;2024-01-16T02:46:16;5.10;93.00
38788;DHT22;24536;45.488;12.238;2024-01-16T02:48:42;5.10;93.00
38788;DHT22;24536;45.488;12.238;2024-01-16T02:51:09;5.10;93.00
38788;DHT22;24536;45.488;12.238;2024-01-16T02:53:35;5.00;93.00
38788;DHT22;24536;45.488;12.238;2024-01-16T02:56:01;5.00;93.10
38788;DHT22;24536;45.488;12.238;2024-01-16T02:58:27;5.00;93.10
38788;DHT22;24536;45.488;12.238;2024-01-16T03:00:53;5.00;93.00
38788;DHT22;24536;45.488;12.238;2024-01-16T03:03:19;5.00;93.10
38788;DHT22;24536;45.488;12.238;2024-01-16T03:05:44;5.10;93.10
38788;DHT22;24536;45.488;12.238;2024-01-16T03:08:10;5.10;93.00
38788;DHT22;24536;45.488;12.238;2024-01-16T03:10:36;5.10;92.80
38788;DHT22;24536;45.488;12.238;2024-01-16T03:13:02;5.10;92.70
38788;DHT22;24536;45.488;12.238;2024-01-16T03:15:28;5.00;92.80
38788;DHT22;24536;45.488;12.238;2024-01-16T03:17:56;5.00;92.90
38788;DHT22;24536;45.488;12.238;2024-01-16T03:20:22;5.00;92.90
38788;DHT22;24536;45.488;12.238;2024-01-16T03:22:48;5.00;92.80
38788;DHT22;24536;45.488;12.238;2024-01-16T03:25:15;5.00;92.80
38788;DHT22;24536;45.488;12.238;2024-01-16T03:27:41;5.00;92.90
38788;DHT22;24536;45.488;12.238;2024-01-16T03:30:07;4.90;92.90
38788;DHT22;24536;45.488;12.238;2024-01-16T03:32:36;4.90;92.90
38788;DHT22;24536;45.488;12.238;2024-01-16T03:35:01;4.80;92.90
38788;DHT22;24536;45.488;12.238;2024-01-16T03:37:27;4.70;93.00
38788;DHT22;24536;45.488;12.238;2024-01-16T03:39:53;4.70;93.10
38788;DHT22;24536;45.488;12.238;2024-01-16T03:42:20;4.70;93.30
38788;DHT22;24536;45.488;12.238;2024-01-16T03:44:46;4.70;93.00
38788;DHT22;24536;45.488;12.238;2024-01-16T03:47:12;4.70;93.10
38788;DHT22;24536;45.488;12.238;2024-01-16T03:49:38;4.60;93.20
38788;DHT22;24536;45.488;12.238;2024-01-16T03:52:04;4.60;93.30
38788;DHT22;24536;45.488;12.238;2024-01-16T03:54:30;4.50;93.30
38788;DHT22;24536;45.488;12.238;2024-01-16T03:56:56;4.40;93.40
38788;DHT22;24536;45.488;12.238;2024-01-16T03:59:22;4.30;93.70
38788;DHT22;24536;45.488;12.238;2024-01-16T04:01:47;4.10;93.90
38788;DHT22;24536;45.488;12.238;2024-01-16T04:04:15;4.10;94.10
38788;DHT22;24536;45.488;12.238;2024-01-16T04:06:41;4.20;93.90
38788;DHT22;24536;45.488;12.238;2024-01-16T04:09:07;4.20;93.80
38788;DHT22;24536;45.488;12.238;2024-01-16T04:11:34;4.30;93.70
38788;DHT22;24536;45.488;12.238;2024-01-16T04:14:00;4.40;93.60
38788;DHT22;24536;45.488;12.238;2024-01-16T04:16:26;4.40;93.60
38788;DHT22;24536;45.488;12.238;2024-01-16T04:18:52;4.50;93.50
38788;DHT22;24536;45.488;12.238;2024-01-16T04:21:18;4.40;93.50
38788;DHT22;24536;45.488;12.238;2024-01-16T04:23:44;4.40;93.50
38788;DHT22;24536;45.488;12.238;2024-01-16T04:26:10;4.40;93.50
38788;DHT22;24536;45.488;12.238;2024-01-16T04:28:35;4.40;93.50
38788;DHT22;24536;45.488;12.238;2024-01-16T04:31:04;4.40;93.50
38788;DHT22;24536;45.488;12.238;2024-01-16T04:33:31;4.40;93.50
38788;DHT22;24536;45.488;12.238;2024-01-16T04:35:56;4.40;93.50
38788;DHT22;24536;45.488;12.238;2024-01-16T04:38:22;4.50;93.40
38788;DHT22;24536;45.488;12.238;2024-01-16T04:40:49;4.50;93.40
38788;DHT22;24536;45.488;12.238;2024-01-16T04:43:15;4.50;93.40
38788;DHT22;24536;45.488;12.238;2024-01-16T04:45:41;4.50;93.30
38788;DHT22;24536;45.488;12.238;2024-01-16T04:48:06;4.60;93.30
38788;DHT22;24536;45.488;12.238;2024-01-16T04:50:34;4.60;93.20
38788;DHT22;24536;45.488;12.238;2024-01-16T04:53:00;4.60;93.10
38788;DHT22;24536;45.488;12.238;2024-01-16T04:55:29;4.60;93.00
38788;DHT22;24536;45.488;12.238;2024-01-16T04:57:56;4.50;92.90
38788;DHT22;24536;45.488;12.238;2024-01-16T05:00:22;4.50;93.00
38788;DHT22;24536;45.488;12.238;2024-01-16T05:02:48;4.60;92.80
38788;DHT22;24536;45.488;12.238;2024-01-16T05:05:14;4.50;92.80
38788;DHT22;24536;45.488;12.238;2024-01-16T05:07:40;4.50;92.60
38788;DHT22;24536;45.488;12.238;2024-01-16T05:10:09;4.50;92.80
38788;DHT22;24536;45.488;12.238;2024-01-16T05:12:35;4.60;92.80
38788;DHT22;24536;45.488;12.238;2024-01-16T05:15:00;4.70;92.80
38788;DHT22;24536;45.488;12.238;2024-01-16T05:17:26;4.70;92.70
38788;DHT22;24536;45.488;12.238;2024-01-16T05:19:51;4.80;92.60
38788;DHT22;24536;45.488;12.238;2024-01-16T05:22:17;4.90;92.50
38788;DHT22;24536;45.488;12.238;2024-01-16T05:24:43;5.00;92.40
38788;DHT22;24536;45.488;12.238;2024-01-16T05:27:08;5.00;92.30
38788;DHT22;24536;45.488;12.238;2024-01-16T05:29:34;5.00;92.10
38788;DHT22;24536;45.488;12.238;2024-01-16T05:32:03;5.00;92.10
38788;DHT22;24536;45.488;12.238;2024-01-16T05:34:29;5.00;92.10
38788;DHT22;24536;45.488;12.238;2024-01-16T05:36:55;5.00;92.10
38788;DHT22;24536;45.488;12.238;2024-01-16T05:39:21;5.00;91.80
38788;DHT22;24536;45.488;12.238;2024-01-16T05:41:47;5.00;91.90
38788;DHT22;24536;45.488;12.238;2024-01-16T05:44:12;5.00;91.90
38788;DHT22;24536;45.488;12.238;2024-01-16T05:46:38;5.00;91.80
38788;DHT22;24536;45.488;12.238;2024-01-16T05:49:04;5.00;91.90
38788;DHT22;24536;45.488;12.238;2024-01-16T05:51:29;5.00;91.80
38788;DHT22;24536;45.488;12.238;2024-01-16T05:53:55;5.10;91.80
38788;DHT22;24536;45.488;12.238;2024-01-16T05:56:21;5.10;91.70
38788;DHT22;24536;45.488;12.238;2024-01-16T05:58:47;5.10;91.70
38788;DHT22;24536;45.488;12.238;2024-01-16T06:01:13;5.10;91.60
38788;DHT22;24536;45.488;12.238;2024-01-16T06:03:39;5.20;91.60
38788;DHT22;24536;45.488;12.238;2024-01-16T06:06:06;5.20;91.60
38788;DHT22;24536;45.488;12.238;2024-01-16T06:08:33;5.20;91.40
38788;DHT22;24536;45.488;12.238;2024-01-16T06:10:58;5.20;91.40
38788;DHT22;24536;45.488;12.238;2024-01-16T06:13:24;5.30;91.40
38788;DHT22;24536;45.488;12.238;2024-01-16T06:15:50;5.30;91.30
38788;DHT22;24536;45.488;12.238;2024-01-16T06:18:15;5.20;90.90
38788;DHT22;24536;45.488;12.238;2024-01-16T06:20:41;5.20;91.20
38788;DHT22;24536;45.488;12.238;2024-01-16T06:23:07;5.30;91.30
38788;DHT22;24536;45.488;12.238;2024-01-16T06:25:32;5.20;91.00
38788;DHT22;24536;45.488;12.238;2024-01-16T06:27:58;5.20;91.10
38788;DHT22;24536;45.488;12.238;2024-01-16T06:30:24;5.30;91.20
38788;DHT22;24536;45.488;12.238;2024-01-16T06:32:49;5.40;91.20
38788;DHT22;24536;45.488;12.238;2024-01-16T06:35:18;5.30;91.10
38788;DHT22;24536;45.488;12.238;2024-01-16T06:37:44;5.40;91.10
38788;DHT22;24536;45.488;12.238;2024-01-16T06:40:10;5.30;90.80
38788;DHT22;24536;45.488;12.238;2024-01-16T06:42:36;5.30;90.80
38788;DHT22;24536;45.488;12.238;2024-01-16T06:45:02;5.30;90.80
38788;DHT22;24536;45.488;12.238;2024-01-16T06:47:28;5.20;90.80
38788;DHT22;24536;45.488;12.238;2024-01-16T06:49:54;5.20;90.90
38788;DHT22;24536;45.488;12.238;2024-01-16T06:52:19;5.30;91.00
38788;DHT22;24536;45.488;12.238;2024-01-16T06:54:45;5.30;91.00
38788;DHT22;24536;45.488;12.238;2024-01-16T06:57:11;5.30;91.00
38788;DHT22;24536;45.488;12.238;2024-01-16T06:59:37;5.40;91.00
38788;DHT22;24536;45.488;12.238;2024-01-16T07:02:02;5.40;91.00
38788;DHT22;24536;45.488;12.238;2024-01-16T07:04:29;5.40;90.70
38788;DHT22;24536;45.488;12.238;2024-01-16T07:06:55;5.40;90.70
38788;DHT22;24536;45.488;12.238;2024-01-16T07:09:20;5.40;90.70
38788;DHT22;24536;45.488;12.238;2024-01-16T07:11:47;5.40;90.60
38788;DHT22;24536;45.488;12.238;2024-01-16T07:14:13;5.40;90.50
38788;DHT22;24536;45.488;12.238;2024-01-16T07:16:39;5.50;90.60
38788;DHT22;24536;45.488;12.238;2024-01-16T07:19:05;5.50;90.60
38788;DHT22;24536;45.488;12.238;2024-01-16T07:21:31;5.60;91.00
38788;DHT22;24536;45.488;12.238;2024-01-16T07:23:57;5.70;92.10
38788;DHT22;24536;45.488;12.238;2024-01-16T07:26:24;5.80;90.70
38788;DHT22;24536;45.488;12.238;2024-01-16T07:28:50;5.80;90.60
38788;DHT22;24536;45.488;12.238;2024-01-16T07:31:16;5.80;90.30
38788;DHT22;24536;45.488;12.238;2024-01-16T07:33:42;5.80;90.20
38788;DHT22;24536;45.488;12.238;2024-01-16T07:36:08;5.80;90.00
38788;DHT22;24536;45.488;12.238;2024-01-16T07:38:35;5.80;90.10
38788;DHT22;24536;45.488;12.238;2024-01-16T07:41:02;5.80;90.10
38788;DHT22;24536;45.488;12.238;2024-01-16T07:43:27;5.80;89.90
38788;DHT22;24536;45.488;12.238;2024-01-16T07:45:57;5.80;90.00
38788;DHT22;24536;45.488;12.238;2024-01-16T07:48:23;5.80;89.80
38788;DHT22;24536;45.488;12.238;2024-01-16T07:51:01;5.80;89.40
38788;DHT22;24536;45.488;12.238;2024-01-16T07:53:26;5.80;89.60
38788;DHT22;24536;45.488;12.238;2024-01-16T07:55:53;5.80;89.80
38788;DHT22;24536;45.488;12.238;2024-01-16T07:58:20;5.90;89.40
38788;DHT22;24536;45.488;12.238;2024-01-16T08:00:46;5.90;89.50
38788;DHT22;24536;45.488;12.238;2024-01-16T08:03:12;5.90;89.40
38788;DHT22;24536;45.488;12.238;2024-01-16T08:05:39;6.00;89.30
38788;DHT22;24536;45.488;12.238;2024-01-16T08:08:08;6.00;89.20
38788;DHT22;24536;45.488;12.238;2024-01-16T08:10:35;6.10;89.10
38788;DHT22;24536;45.488;12.238;2024-01-16T08:13:00;6.10;88.70
38788;DHT22;24536;45.488;12.238;2024-01-16T08:15:26;6.10;88.70
38788;DHT22;24536;45.488;12.238;2024-01-16T08:17:52;6.20;88.60
38788;DHT22;24536;45.488;12.238;2024-01-16T08:20:17;6.20;88.80
38788;DHT22;24536;45.488;12.238;2024-01-16T08:22:43;6.30;88.80
38788;DHT22;24536;45.488;12.238;2024-01-16T08:25:09;6.20;88.60
38788;DHT22;24536;45.488;12.238;2024-01-16T08:27:35;6.30;88.40
38788;DHT22;24536;45.488;12.238;2024-01-16T08:30:04;6.30;88.50
38788;DHT22;24536;45.488;12.238;2024-01-16T08:32:29;6.30;88.30
38788;DHT22;24536;45.488;12.238;2024-01-16T08:34:56;6.40;87.60
38788;DHT22;24536;45.488;12.238;2024-01-16T08:37:22;6.40;87.90
38788;DHT22;24536;45.488;12.238;2024-01-16T08:39:47;6.50;87.70
38788;DHT22;24536;45.488;12.238;2024-01-16T08:42:13;6.50;87.70
38788;DHT22;24536;45.488;12.238;2024-01-16T08:44:39;6.60;87.50
38788;DHT22;24536;45.488;12.238;2024-01-16T08:47:05;6.60;87.40
38788;DHT22;24536;45.488;12.238;2024-01-16T08:49:32;6.70;87.90
38788;DHT22;24536;45.488;12.238;2024-01-16T08:51:58;6.80;87.60
38788;DHT22;24536;45.488;12.238;2024-01-16T08:54:24;6.90;87.20
38788;DHT22;24536;45.488;12.238;2024-01-16T08:56:51;7.10;87.20
38788;DHT22;24536;45.488;12.238;2024-01-16T08:59:17;7.20;86.00
38788;DHT22;24536;45.488;12.238;2024-01-16T09:01:43;7.30;86.30
38788;DHT22;24536;45.488;12.238;2024-01-16T09:04:09;7.40;86.00
38788;DHT22;24536;45.488;12.238;2024-01-16T09:06:34;7.60;84.90
38788;DHT22;24536;45.488;12.238;2024-01-16T09:09:00;7.70;85.60
38788;DHT22;24536;45.488;12.238;2024-01-16T09:11:26;8.00;92.00
38788;DHT22;24536;45.488;12.238;2024-01-16T09:13:51;8.30;90.10
38788;DHT22;24536;45.488;12.238;2024-01-16T09:16:17;8.40;88.20
38788;DHT22;24536;45.488;12.238;2024-01-16T09:18:43;8.50;86.60
38788;DHT22;24536;45.488;12.238;2024-01-16T09:21:09;8.50;84.50
38788;DHT22;24536;45.488;12.238;2024-01-16T09:23:35;8.40;84.30
38788;DHT22;24536;45.488;12.238;2024-01-16T09:26:01;8.40;83.60
38788;DHT22;24536;45.488;12.238;2024-01-16T09:28:26;8.50;83.40
38788;DHT22;24536;45.488;12.238;2024-01-16T09:30:54;8.50;85.70
38788;DHT22;24536;45.488;12.238;2024-01-16T09:33:22;8.50;84.40
38788;DHT22;24536;45.488;12.238;2024-01-16T09:35:48;8.60;83.90
38788;DHT22;24536;45.488;12.238;2024-01-16T09:38:14;8.60;83.00
38788;DHT22;24536;45.488;12.238;2024-01-16T09:40:39;8.70;83.40
38788;DHT22;24536;45.488;12.238;2024-01-16T09:43:06;8.70;81.00
38788;DHT22;24536;45.488;12.238;2024-01-16T09:45:37;8.70;81.50
38788;DHT22;24536;45.488;12.238;2024-01-16T09:48:05;8.70;81.90
38788;DHT22;24536;45.488;12.238;2024-01-16T09:50:31;8.80;82.00
38788;DHT22;24536;45.488;12.238;2024-01-16T09:52:57;8.90;81.80
38788;DHT22;24536;45.488;12.238;2024-01-16T09:55:23;9.00;81.30
38788;DHT22;24536;45.488;12.238;2024-01-16T09:57:52;9.10;81.20
38788;DHT22;24536;45.488;12.238;2024-01-16T10:00:18;9.30;81.30
38788;DHT22;24536;45.488;12.238;2024-01-16T10:02:45;9.40;81.20
38788;DHT22;24536;45.488;12.238;2024-01-16T10:05:11;9.50;80.80
38788;DHT22;24536;45.488;12.238;2024-01-16T10:07:39;9.60;80.20
38788;DHT22;24536;45.488;12.238;2024-01-16T10:10:05;9.70;78.80
38788;DHT22;24536;45.488;12.238;2024-01-16T10:12:32;9.70;78.90
38788;DHT22;24536;45.488;12.238;2024-01-16T10:14:58;9.70;78.90
38788;DHT22;24536;45.488;12.238;2024-01-16T10:17:41;9.80;78.90
38788;DHT22;24536;45.488;12.238;2024-01-16T10:20:09;9.80;78.70
38788;DHT22;24536;45.488;12.238;2024-01-16T10:22:42;9.90;80.10
38788;DHT22;24536;45.488;12.238;2024-01-16T10:25:17;10.00;77.90
38788;DHT22;24536;45.488;12.238;2024-01-16T10:27:45;10.10;78.40
38788;DHT22;24536;45.488;12.238;2024-01-16T10:30:11;10.20;77.70
38788;DHT22;24536;45.488;12.238;2024-01-16T10:32:41;10.40;77.00
38788;DHT22;24536;45.488;12.238;2024-01-16T10:35:11;10.60;77.50
38788;DHT22;24536;45.488;12.238;2024-01-16T10:37:49;10.70;77.50
38788;DHT22;24536;45.488;12.238;2024-01-16T10:40:19;10.90;76.70
38788;DHT22;24536;45.488;12.238;2024-01-16T10:45:25;11.20;75.80
38788;DHT22;24536;45.488;12.238;2024-01-16T10:48:01;11.20;74.50
38788;DHT22;24536;45.488;12.238;2024-01-16T10:50:28;11.30;74.20
38788;DHT22;24536;45.488;12.238;2024-01-16T10:52:54;11.40;74.10
38788;DHT22;24536;45.488;12.238;2024-01-16T10:55:22;11.40;72.80
38788;DHT22;24536;45.488;12.238;2024-01-16T10:57:51;11.40;71.50
38788;DHT22;24536;45.488;12.238;2024-01-16T11:00:21;11.30;72.50
38788;DHT22;24536;45.488;12.238;2024-01-16T11:02:58;11.30;73.10
38788;DHT22;24536;45.488;12.238;2024-01-16T11:05:25;11.30;72.60
38788;DHT22;24536;45.488;12.238;2024-01-16T11:07:54;11.30;72.80
38788;DHT22;24536;45.488;12.238;2024-01-16T11:10:21;11.20;72.80
38788;DHT22;24536;45.488;12.238;2024-01-16T11:12:48;11.10;73.10
38788;DHT22;24536;45.488;12.238;2024-01-16T11:15:15;11.00;73.10
38788;DHT22;24536;45.488;12.238;2024-01-16T11:17:44;10.90;73.30
38788;DHT22;24536;45.488;12.238;2024-01-16T11:20:11;10.80;73.40
38788;DHT22;24536;45.488;12.238;2024-01-16T11:22:42;10.70;73.40
38788;DHT22;24536;45.488;12.238;2024-01-16T11:25:12;10.70;74.30
38788;DHT22;24536;45.488;12.238;2024-01-16T11:27:40;10.70;74.60
38788;DHT22;24536;45.488;12.238;2024-01-16T11:30:08;10.70;74.50
38788;DHT22;24536;45.488;12.238;2024-01-16T11:32:41;10.60;74.40
38788;DHT22;24536;45.488;12.238;2024-01-16T11:35:10;10.60;74.40
38788;DHT22;24536;45.488;12.238;2024-01-16T11:37:41;10.50;73.10
38788;DHT22;24536;45.488;12.238;2024-01-16T11:42:46;10.40;74.30
38788;DHT22;24536;45.488;12.238;2024-01-16T11:50:35;10.60;75.20
38788;DHT22;24536;45.488;12.238;2024-01-16T11:53:00;10.80;75.20
38788;DHT22;24536;45.488;12.238;2024-01-16T11:58:20;12.60;74.30
38788;DHT22;24536;45.488;12.238;2024-01-16T12:01:10;14.00;71.20
38788;DHT22;24536;45.488;12.238;2024-01-16T12:03:37;15.70;67.50
38788;DHT22;24536;45.488;12.238;2024-01-16T12:06:03;17.00;61.50
38788;DHT22;24536;45.488;12.238;2024-01-16T12:08:32;18.30;61.90
38788;DHT22;24536;45.488;12.238;2024-01-16T12:10:58;19.30;56.60
38788;DHT22;24536;45.488;12.238;2024-01-16T12:13:25;20.10;53.30
38788;DHT22;24536;45.488;12.238;2024-01-16T12:16:00;20.90;54.10
38788;DHT22;24536;45.488;12.238;2024-01-16T12:18:27;21.60;51.40
38788;DHT22;24536;45.488;12.238;2024-01-16T12:20:52;22.10;48.00
38788;DHT22;24536;45.488;12.238;2024-01-16T12:23:18;22.50;48.60
38788;DHT22;24536;45.488;12.238;2024-01-16T12:25:46;22.50;47.10
38788;DHT22;24536;45.488;12.238;2024-01-16T12:28:12;22.40;44.00
38788;DHT22;24536;45.488;12.238;2024-01-16T12:30:49;22.50;46.20
38788;DHT22;24536;45.488;12.238;2024-01-16T12:33:15;22.70;45.10
38788;DHT22;24536;45.488;12.238;2024-01-16T12:35:43;22.40;44.50
38788;DHT22;24536;45.488;12.238;2024-01-16T12:38:13;21.80;44.40
38788;DHT22;24536;45.488;12.238;2024-01-16T12:40:44;21.30;44.30
38788;DHT22;24536;45.488;12.238;2024-01-16T12:43:12;20.70;45.40
38788;DHT22;24536;45.488;12.238;2024-01-16T12:45:37;20.30;46.20
38788;DHT22;24536;45.488;12.238;2024-01-16T12:48:04;20.00;46.30
38788;DHT22;24536;45.488;12.238;2024-01-16T12:50:30;19.70;47.10
38788;DHT22;24536;45.488;12.238;2024-01-16T12:55:33;18.70;48.10
38788;DHT22;24536;45.488;12.238;2024-01-16T12:58:32;18.60;48.80
38788;DHT22;24536;45.488;12.238;2024-01-16T13:01:04;18.70;49.30
38788;DHT22;24536;45.488;12.238;2024-01-16T13:03:45;18.90;48.80
38788;DHT22;24536;45.488;12.238;2024-01-16T13:06:10;19.10;48.40
38788;DHT22;24536;45.488;12.238;2024-01-16T13:08:42;19.30;46.90
38788;DHT22;24536;45.488;12.238;2024-01-16T13:11:08;19.60;47.60
38788;DHT22;24536;45.488;12.238;2024-01-16T13:13:37;19.60;46.70
38788;DHT22;24536;45.488;12.238;2024-01-16T13:16:05;19.50;47.20
38788;DHT22;24536;45.488;12.238;2024-01-16T13:18:34;19.30;47.00
38788;DHT22;24536;45.488;12.238;2024-01-16T13:21:00;18.90;47.10
38788;DHT22;24536;45.488;12.238;2024-01-16T13:23:27;18.50;47.20
38788;DHT22;24536;45.488;12.238;2024-01-16T13:25:54;18.00;47.60
38788;DHT22;24536;45.488;12.238;2024-01-16T13:28:28;17.50;47.80
38788;DHT22;24536;45.488;12.238;2024-01-16T13:30:55;17.00;49.50
38788;DHT22;24536;45.488;12.238;2024-01-16T13:33:25;16.50;50.00
38788;DHT22;24536;45.488;12.238;2024-01-16T13:35:53;16.10;50.60
38788;DHT22;24536;45.488;12.238;2024-01-16T13:38:20;15.70;50.90
38788;DHT22;24536;45.488;12.238;2024-01-16T13:40:46;15.40;51.30
38788;DHT22;24536;45.488;12.238;2024-01-16T13:43:12;15.10;52.30
38788;DHT22;24536;45.488;12.238;2024-01-16T13:45:39;14.80;53.30
38788;DHT22;24536;45.488;12.238;2024-01-16T13:48:05;14.60;53.70
38788;DHT22;24536;45.488;12.238;2024-01-16T13:50:33;14.40;53.50
38788;DHT22;24536;45.488;12.238;2024-01-16T13:53:00;14.20;54.50
38788;DHT22;24536;45.488;12.238;2024-01-16T13:55:27;14.00;54.80
38788;DHT22;24536;45.488;12.238;2024-01-16T13:57:53;13.80;54.90
38788;DHT22;24536;45.488;12.238;2024-01-16T14:00:18;13.70;55.30
38788;DHT22;24536;45.488;12.238;2024-01-16T14:02:45;13.50;55.60
38788;DHT22;24536;45.488;12.238;2024-01-16T14:05:15;13.40;55.90
38788;DHT22;24536;45.488;12.238;2024-01-16T14:07:41;13.30;56.00
38788;DHT22;24536;45.488;12.238;2024-01-16T14:10:08;13.20;56.90
38788;DHT22;24536;45.488;12.238;2024-01-16T14:12:41;13.10;57.00
38788;DHT22;24536;45.488;12.238;2024-01-16T14:15:09;13.00;57.50
38788;DHT22;24536;45.488;12.238;2024-01-16T14:17:42;12.90;58.10
38788;DHT22;24536;45.488;12.238;2024-01-16T14:20:10;12.80;58.20
38788;DHT22;24536;45.488;12.238;2024-01-16T14:22:37;12.70;58.20
38788;DHT22;24536;45.488;12.238;2024-01-16T14:25:09;12.60;58.30
38788;DHT22;24536;45.488;12.238;2024-01-16T14:27:43;12.50;58.70
38788;DHT22;24536;45.488;12.238;2024-01-16T14:30:14;12.40;59.50
38788;DHT22;24536;45.488;12.238;2024-01-16T14:32:41;12.40;59.50
38788;DHT22;24536;45.488;12.238;2024-01-16T14:35:08;12.30;59.90
38788;DHT22;24536;45.488;12.238;2024-01-16T14:37:38;12.20;60.00
38788;DHT22;24536;45.488;12.238;2024-01-16T14:40:05;12.20;60.20
38788;DHT22;24536;45.488;12.238;2024-01-16T14:42:44;12.10;60.50
38788;DHT22;24536;45.488;12.238;2024-01-16T14:45:10;12.00;60.60
38788;DHT22;24536;45.488;12.238;2024-01-16T14:47:38;11.90;60.80
38788;DHT22;24536;45.488;12.238;2024-01-16T14:50:05;11.90;61.00
38788;DHT22;24536;45.488;12.238;2024-01-16T14:52:32;11.90;61.30
38788;DHT22;24536;45.488;12.238;2024-01-16T14:54:58;11.80;62.10
38788;DHT22;24536;45.488;12.238;2024-01-16T14:57:25;11.80;62.70
38788;DHT22;24536;45.488;12.238;2024-01-16T14:59:50;11.70;62.50
38788;DHT22;24536;45.488;12.238;2024-01-16T15:02:16;11.60;62.80
38788;DHT22;24536;45.488;12.238;2024-01-16T15:04:42;11.60;62.70
38788;DHT22;24536;45.488;12.238;2024-01-16T15:07:09;11.60;62.70
38788;DHT22;24536;45.488;12.238;2024-01-16T15:09:35;11.50;62.20
38788;DHT22;24536;45.488;12.238;2024-01-16T15:12:07;11.50;62.50
38788;DHT22;24536;45.488;12.238;2024-01-16T15:14:33;11.40;62.20
38788;DHT22;24536;45.488;12.238;2024-01-16T15:17:00;11.40;62.50
38788;DHT22;24536;45.488;12.238;2024-01-16T15:19:27;11.40;62.90
38788;DHT22;24536;45.488;12.238;2024-01-16T15:21:52;11.30;63.70
38788;DHT22;24536;45.488;12.238;2024-01-16T15:24:18;11.30;65.00
38788;DHT22;24536;45.488;12.238;2024-01-16T15:27:00;11.20;65.40
38788;DHT22;24536;45.488;12.238;2024-01-16T15:29:26;11.10;66.20
38788;DHT22;24536;45.488;12.238;2024-01-16T15:31:52;11.10;66.00
38788;DHT22;24536;45.488;12.238;2024-01-16T15:34:21;11.00;66.40
38788;DHT22;24536;45.488;12.238;2024-01-16T15:36:47;11.00;67.10
38788;DHT22;24536;45.488;12.238;2024-01-16T15:39:13;10.90;67.50